createdAt,value
2022-10-21T00:01:00.169Z,1.92
2022-10-21T00:03:37.641Z,2.03
2022-10-21T00:06:06.775Z,1.30
2022-10-21T00:08:34.894Z,1.05
2022-10-21T00:11:06.719Z,1.65
2022-10-21T00:13:38.661Z,1.67
2022-10-21T00:16:15.308Z,1.92
2022-10-21T00:18:45.596Z,2.28
2022-10-21T00:21:20.074Z,1.17
2022-10-21T00:23:49.988Z,1.58
2022-10-21T00:26:19.115Z,1.85
2022-10-21T00:28:47.121Z,1.50
2022-10-21T00:31:16.491Z,1.50
2022-10-21T00:33:44.786Z,1.70
2022-10-21T00:36:15.999Z,1.70
2022-10-21T00:38:46.342Z,1.58
2022-10-21T00:41:17.472Z,1.30
2022-10-21T00:44:07.002Z,2.22
2022-10-21T00:46:40.632Z,1.80
2022-10-21T00:49:34.264Z,1.65
2022-10-21T00:52:06.187Z,1.63
2022-10-21T00:54:34.563Z,1.30
2022-10-21T00:57:02.340Z,1.10
2022-10-21T00:59:36.273Z,1.02
2022-10-21T01:02:04.708Z,1.17
2022-10-21T01:04:32.176Z,1.20
2022-10-21T01:07:01.930Z,1.13
2022-10-21T01:11:58.762Z,1.67
2022-10-21T01:14:54.497Z,1.08
2022-10-21T01:18:15.730Z,1.30
2022-10-21T01:20:58.021Z,1.42
2022-10-21T01:23:53.148Z,1.98
2022-10-21T01:26:54.334Z,1.50
2022-10-21T01:29:51.159Z,1.48
2022-10-21T01:33:06.475Z,1.40
2022-10-21T01:35:46.164Z,1.80
2022-10-21T01:38:38.720Z,1.58
2022-10-21T01:41:26.540Z,2.47
2022-10-21T01:44:28.006Z,2.25
2022-10-21T01:47:16.748Z,1.83
2022-10-21T01:49:56.018Z,1.97
2022-10-21T01:54:59.494Z,2.97
2022-10-21T01:57:32.488Z,2.78
2022-10-21T02:00:01.782Z,2.97
2022-10-21T02:02:37.597Z,3.13
2022-10-21T02:05:21.562Z,3.38
2022-10-21T02:07:50.159Z,3.13
2022-10-21T02:10:19.748Z,3.75
2022-10-21T02:12:51.587Z,3.58
2022-10-21T02:15:22.001Z,2.95
2022-10-21T02:17:57.574Z,3.20
2022-10-21T02:20:28.278Z,2.42
2022-10-21T02:22:56.047Z,2.88
2022-10-21T02:25:33.459Z,2.78
2022-10-21T02:28:01.587Z,2.40
2022-10-21T02:30:40.312Z,2.70
2022-10-21T02:33:16.645Z,3.13
2022-10-21T02:36:17.046Z,3.08
2022-10-21T02:38:53.950Z,2.35
2022-10-21T02:41:24.968Z,2.20
2022-10-21T02:44:02.767Z,2.15
2022-10-21T02:46:44.569Z,2.67
2022-10-21T02:49:12.950Z,2.72
2022-10-21T02:51:42.041Z,2.05
2022-10-21T02:54:09.896Z,2.38
2022-10-21T02:56:37.482Z,2.70
2022-10-21T02:59:05.261Z,2.05
2022-10-21T03:01:32.680Z,2.50
2022-10-21T03:04:00.414Z,2.70
2022-10-21T03:06:27.853Z,2.65
2022-10-21T03:08:55.711Z,3.00
2022-10-21T03:11:23.343Z,2.70
2022-10-21T03:13:51.089Z,2.72
2022-10-21T03:18:51.207Z,4.20
2022-10-21T03:21:18.706Z,3.70
2022-10-21T03:23:46.443Z,3.25
2022-10-21T03:26:13.929Z,3.85
2022-10-21T03:28:41.641Z,3.17
2022-10-21T03:31:09.226Z,4.28
2022-10-21T03:33:37.079Z,4.07
2022-10-21T03:36:05.549Z,3.83
2022-10-21T03:38:33.388Z,3.78
2022-10-21T03:41:00.837Z,4.55
2022-10-21T03:43:28.533Z,3.53
2022-10-21T03:45:55.977Z,4.30
2022-10-21T03:48:23.838Z,4.68
2022-10-21T03:50:51.264Z,5.22
2022-10-21T03:53:38.127Z,4.82
2022-10-21T03:56:07.030Z,5.55
2022-10-21T03:58:35.774Z,5.05
2022-10-21T04:01:03.425Z,5.07
2022-10-21T04:03:31.157Z,5.47
2022-10-21T04:05:58.585Z,4.40
2022-10-21T04:08:26.265Z,5.55
2022-10-21T04:10:56.781Z,6.07
2022-10-21T04:13:43.543Z,6.82
2022-10-21T04:16:18.357Z,6.47
2022-10-21T04:18:47.201Z,6.45
2022-10-21T04:21:14.940Z,7.00
2022-10-21T04:23:42.693Z,8.15
2022-10-21T04:26:11.763Z,8.18
2022-10-21T04:28:39.593Z,9.40
2022-10-21T04:31:07.157Z,9.88
2022-10-21T04:33:35.038Z,9.85
2022-10-21T04:36:02.692Z,9.98
2022-10-21T04:38:30.568Z,10.20
2022-10-21T04:40:59.619Z,10.15
2022-10-21T04:43:27.968Z,10.05
2022-10-21T04:45:55.862Z,10.52
2022-10-21T04:48:23.882Z,9.73
2022-10-21T04:50:52.789Z,10.77
2022-10-21T04:53:21.792Z,10.65
2022-10-21T04:55:55.209Z,9.80
2022-10-21T04:58:23.255Z,10.15
2022-10-21T05:00:51.889Z,9.63
2022-10-21T05:03:20.587Z,11.07
2022-10-21T05:05:52.897Z,10.07
2022-10-21T05:08:21.330Z,10.00
2022-10-21T05:10:49.346Z,12.48
2022-10-21T05:13:17.193Z,10.60
2022-10-21T05:15:44.709Z,11.18
2022-10-21T05:18:12.439Z,12.38
2022-10-21T05:20:39.867Z,11.35
2022-10-21T05:23:07.620Z,12.63
2022-10-21T05:25:35.112Z,12.07
2022-10-21T05:28:02.923Z,12.45
2022-10-21T05:30:30.411Z,13.18
2022-10-21T05:32:58.107Z,12.95
2022-10-21T05:35:25.541Z,13.07
2022-10-21T05:37:53.270Z,14.18
2022-10-21T05:40:20.759Z,13.88
2022-10-21T05:42:48.530Z,12.38
2022-10-21T05:45:16.116Z,13.18
2022-10-21T05:47:44.453Z,12.93
2022-10-21T05:50:13.196Z,14.38
2022-10-21T05:52:41.550Z,14.55
2022-10-21T05:55:10.262Z,14.55
2022-10-21T05:57:39.163Z,14.20
2022-10-21T06:00:08.190Z,15.82
2022-10-21T06:02:36.827Z,14.38
2022-10-21T06:05:04.937Z,15.00
2022-10-21T06:07:32.871Z,15.35
2022-10-21T06:10:00.313Z,14.52
2022-10-21T06:12:28.176Z,15.10
2022-10-21T06:14:55.823Z,14.25
2022-10-21T06:17:23.611Z,13.40
2022-10-21T06:19:51.263Z,14.73
2022-10-21T06:22:18.933Z,13.35
2022-10-21T06:24:47.284Z,13.27
2022-10-21T06:27:15.161Z,14.80
2022-10-21T06:29:42.653Z,13.23
2022-10-21T06:32:11.683Z,12.95
2022-10-21T06:34:39.724Z,13.75
2022-10-21T06:37:09.078Z,12.20
2022-10-21T06:39:36.581Z,11.57
2022-10-21T06:42:04.320Z,12.63
2022-10-21T06:44:40.474Z,12.20
2022-10-21T06:47:09.168Z,10.93
2022-10-21T06:49:36.660Z,10.43
2022-10-21T06:52:04.882Z,11.20
2022-10-21T06:54:32.552Z,10.88
2022-10-21T06:57:00.583Z,10.50
2022-10-21T06:59:28.455Z,10.68
2022-10-21T07:02:00.075Z,11.15
2022-10-21T07:04:29.330Z,11.48
2022-10-21T07:06:57.248Z,10.27
2022-10-21T07:09:24.768Z,9.88
2022-10-21T07:11:52.600Z,9.70
2022-10-21T07:14:20.164Z,10.32
2022-10-21T07:16:48.352Z,11.57
2022-10-21T07:19:15.834Z,9.98
2022-10-21T07:21:44.232Z,10.60
2022-10-21T07:24:11.752Z,11.07
2022-10-21T07:26:40.293Z,10.10
2022-10-21T07:29:07.869Z,11.43
2022-10-21T07:31:38.148Z,9.75
2022-10-21T07:34:08.425Z,10.50
2022-10-21T07:36:44.403Z,9.77
2022-10-21T07:39:16.058Z,8.93
2022-10-21T07:41:51.808Z,8.95
2022-10-21T07:44:21.880Z,8.20
2022-10-21T07:46:51.482Z,7.95
2022-10-21T07:49:20.774Z,8.98
2022-10-21T07:51:50.445Z,8.23
2022-10-21T07:56:50.827Z,8.50
2022-10-21T07:59:20.470Z,7.50
2022-10-21T08:04:20.933Z,7.35
2022-10-21T08:06:49.654Z,6.75
2022-10-21T08:09:17.838Z,7.25
2022-10-21T08:11:45.702Z,8.03
2022-10-21T08:14:15.798Z,7.97
2022-10-21T08:16:43.623Z,6.65
2022-10-21T08:19:27.316Z,7.85
2022-10-21T08:21:56.135Z,6.85
2022-10-21T08:24:23.986Z,7.18
2022-10-21T08:26:52.143Z,8.02
2022-10-21T08:29:19.803Z,6.20
2022-10-21T08:31:47.591Z,6.97
2022-10-21T08:34:15.111Z,6.15
2022-10-21T08:36:42.981Z,6.32
2022-10-21T08:39:10.569Z,6.20
2022-10-21T08:42:05.044Z,5.50
2022-10-21T08:45:07.404Z,6.10
2022-10-21T08:47:47.157Z,6.28
2022-10-21T08:50:42.885Z,6.15
2022-10-21T08:53:33.448Z,5.10
2022-10-21T08:56:17.157Z,5.10
2022-10-21T08:58:51.102Z,5.20
2022-10-21T09:01:32.192Z,4.88
2022-10-21T09:04:40.810Z,5.30
2022-10-21T09:07:39.676Z,5.50
2022-10-21T09:10:41.662Z,5.75
2022-10-21T09:13:49.474Z,5.63
2022-10-21T09:16:46.186Z,5.47
2022-10-21T09:19:36.131Z,6.65
2022-10-21T09:22:39.422Z,5.15
2022-10-21T09:25:27.053Z,5.32
2022-10-21T09:27:57.065Z,6.35
2022-10-21T09:30:25.860Z,5.60
2022-10-21T09:33:00.732Z,5.93
2022-10-21T09:35:54.742Z,4.97
2022-10-21T09:38:40.319Z,5.38
2022-10-21T09:41:19.302Z,5.35
2022-10-21T09:49:25.905Z,5.43
2022-10-21T09:51:42.691Z,5.32
2022-10-21T09:54:19.833Z,5.82
2022-10-21T09:57:00.884Z,6.60
2022-10-21T09:59:33.221Z,5.85
2022-10-21T10:02:15.440Z,5.93
2022-10-21T10:04:43.247Z,5.43
2022-10-21T10:07:27.719Z,5.30
2022-10-21T10:09:55.792Z,5.75
2022-10-21T10:12:29.278Z,6.43
2022-10-21T10:14:57.312Z,5.80
2022-10-21T10:17:29.023Z,5.25
2022-10-21T10:20:05.615Z,4.63
2022-10-21T10:22:43.610Z,5.32
2022-10-21T10:25:24.234Z,5.13
2022-10-21T10:28:10.113Z,5.90
2022-10-21T10:30:50.522Z,5.40
2022-10-21T10:33:28.342Z,4.85
2022-10-21T10:36:09.168Z,5.30
2022-10-21T10:38:55.245Z,5.93
2022-10-21T10:41:34.501Z,4.93
2022-10-21T10:44:09.142Z,4.88
2022-10-21T10:46:38.884Z,4.65
2022-10-21T10:49:15.814Z,4.88
2022-10-21T10:51:47.764Z,4.55
2022-10-21T10:54:28.630Z,4.63
2022-10-21T10:57:10.628Z,4.85
2022-10-21T11:00:09.366Z,3.90
2022-10-21T11:02:56.004Z,4.53
2022-10-21T11:06:05.844Z,4.50
2022-10-21T11:08:45.481Z,4.95
2022-10-21T11:11:45.623Z,4.55
2022-10-21T11:14:21.806Z,4.88
2022-10-21T11:17:01.353Z,4.47
2022-10-21T11:19:58.303Z,4.60
2022-10-21T11:23:02.919Z,4.30
2022-10-21T11:25:46.942Z,4.40
2022-10-21T11:29:05.637Z,4.88
2022-10-21T11:32:12.330Z,4.43
2022-10-21T11:35:16.222Z,5.05
2022-10-21T11:38:37.439Z,4.20
2022-10-21T11:44:29.251Z,4.00
2022-10-21T11:47:17.335Z,4.15
2022-10-21T11:53:30.482Z,4.82
2022-10-21T11:56:09.398Z,3.55
2022-10-21T12:02:01.288Z,4.43
2022-10-21T12:04:50.029Z,4.97
2022-10-21T12:07:58.449Z,4.22
2022-10-21T12:10:43.951Z,4.55
2022-10-21T12:13:36.887Z,5.15
2022-10-21T12:16:19.042Z,3.83
2022-10-21T12:18:58.007Z,3.97
2022-10-21T12:24:30.707Z,3.75
2022-10-21T12:27:18.664Z,4.15
2022-10-21T12:30:06.801Z,4.47
2022-10-21T12:32:52.306Z,5.05
2022-10-21T12:35:40.446Z,5.80
2022-10-21T12:38:24.346Z,4.38
2022-10-21T12:41:23.784Z,5.85
2022-10-21T12:44:05.825Z,5.15
2022-10-21T12:46:49.083Z,5.55
2022-10-21T12:49:32.666Z,5.05
2022-10-21T12:52:02.830Z,4.70
2022-10-21T12:54:51.332Z,4.88
2022-10-21T12:57:45.232Z,5.20
2022-10-21T13:00:28.070Z,3.88
2022-10-21T13:03:22.310Z,5.03
2022-10-21T13:05:53.051Z,4.40
2022-10-21T13:08:29.691Z,5.43
2022-10-21T13:11:36.758Z,5.70
2022-10-21T13:14:54.771Z,5.53
2022-10-21T13:17:22.450Z,5.40
2022-10-21T13:19:55.028Z,5.78
2022-10-21T13:22:36.038Z,5.80
2022-10-21T13:25:35.330Z,6.93
2022-10-21T13:28:19.906Z,6.18
2022-10-21T13:30:50.334Z,6.65
2022-10-21T13:33:22.120Z,5.95
2022-10-21T13:36:08.264Z,5.78
2022-10-21T13:38:46.713Z,5.30
2022-10-21T13:41:28.338Z,5.15
2022-10-21T13:44:05.852Z,6.10
2022-10-21T13:46:42.573Z,5.43
2022-10-21T13:49:30.695Z,5.00
2022-10-21T13:51:58.433Z,5.50
2022-10-21T13:54:26.355Z,6.45
2022-10-21T13:56:53.793Z,7.72
2022-10-21T13:59:34.687Z,7.35
2022-10-21T14:02:04.220Z,6.97
2022-10-21T14:04:34.312Z,5.82
2022-10-21T14:07:09.193Z,5.60
2022-10-21T14:09:50.909Z,6.05
2022-10-21T14:12:25.215Z,6.00
2022-10-21T14:14:57.911Z,5.32
2022-10-21T14:17:27.505Z,6.10
2022-10-21T14:20:27.295Z,6.93
2022-10-21T14:22:55.942Z,6.72
2022-10-21T14:25:23.836Z,6.63
2022-10-21T14:27:51.552Z,6.20
2022-10-21T14:30:26.403Z,5.65
2022-10-21T14:32:56.920Z,6.78
2022-10-21T14:35:29.696Z,6.88
2022-10-21T14:38:03.262Z,6.57
2022-10-21T14:40:38.107Z,6.90
2022-10-21T14:43:34.594Z,6.32
2022-10-21T14:46:06.391Z,7.60
2022-10-21T14:48:59.809Z,6.88
2022-10-21T14:51:27.931Z,6.88
2022-10-21T14:54:04.186Z,7.65
2022-10-21T14:56:40.662Z,7.53
2022-10-21T14:59:34.346Z,7.82
2022-10-21T15:02:03.198Z,7.95
2022-10-21T15:04:50.967Z,8.52
2022-10-21T15:07:38.809Z,8.55
2022-10-21T15:10:07.276Z,8.98
2022-10-21T15:12:51.433Z,8.32
2022-10-21T15:15:40.404Z,7.70
2022-10-21T15:21:01.900Z,7.82
2022-10-21T15:23:43.178Z,9.13
2022-10-21T15:26:32.178Z,8.68
2022-10-21T15:31:29.245Z,9.60
2022-10-21T15:33:58.682Z,10.50
2022-10-21T15:36:26.299Z,12.20
2022-10-21T15:38:55.383Z,12.57
2022-10-21T15:41:25.939Z,13.23
2022-10-21T15:43:56.591Z,12.30
2022-10-21T15:46:26.703Z,12.23
2022-10-21T15:48:55.375Z,10.98
2022-10-21T15:51:22.998Z,10.23
2022-10-21T15:53:50.698Z,11.40
2022-10-21T15:56:20.048Z,10.15
2022-10-21T16:01:17.523Z,9.75
2022-10-21T16:03:45.816Z,8.95
2022-10-21T16:06:19.878Z,8.80
2022-10-21T16:08:49.437Z,8.95
2022-10-21T16:14:05.661Z,8.40
2022-10-21T16:16:33.313Z,7.85
2022-10-21T16:19:01.062Z,8.73
2022-10-21T16:21:28.609Z,8.32
2022-10-21T16:23:57.018Z,7.63
2022-10-21T16:26:29.382Z,7.90
2022-10-21T16:28:58.064Z,9.13
2022-10-21T16:31:27.601Z,10.10
2022-10-21T16:33:55.357Z,9.63
2022-10-21T16:36:27.648Z,9.65
2022-10-21T16:38:55.629Z,11.00
2022-10-21T16:41:28.200Z,9.80
2022-10-21T16:43:56.681Z,11.02
2022-10-21T16:46:35.681Z,10.57
2022-10-21T16:49:13.925Z,10.13
2022-10-21T16:51:46.253Z,9.20
2022-10-21T16:54:15.432Z,11.23
2022-10-21T16:56:43.482Z,11.38
2022-10-21T16:59:11.998Z,10.05
2022-10-21T17:01:39.784Z,10.35
2022-10-21T17:04:07.595Z,10.48
2022-10-21T17:06:35.057Z,10.80
2022-10-21T17:09:02.850Z,10.68
2022-10-21T17:11:38.174Z,10.73
2022-10-21T17:14:11.959Z,10.88
2022-10-21T17:16:40.220Z,9.98
2022-10-21T17:19:08.243Z,9.68
2022-10-21T17:21:35.799Z,10.15
2022-10-21T17:24:04.936Z,9.50
2022-10-21T17:26:36.742Z,9.60
2022-10-21T17:29:04.464Z,9.75
2022-10-21T17:31:32.289Z,10.60
2022-10-21T17:34:07.536Z,10.40
2022-10-21T17:36:35.966Z,11.25
2022-10-21T17:39:06.841Z,10.27
2022-10-21T17:41:34.445Z,10.52
2022-10-21T17:44:03.337Z,9.68
2022-10-21T17:46:30.813Z,10.25
2022-10-21T17:48:58.707Z,9.93
2022-10-21T17:51:26.480Z,10.55
2022-10-21T17:53:55.328Z,11.43
2022-10-21T17:56:26.072Z,10.70
2022-10-21T17:58:56.286Z,10.63
2022-10-21T18:01:25.451Z,9.82
2022-10-21T18:03:54.256Z,10.52
2022-10-21T18:06:21.804Z,9.43
2022-10-21T18:08:49.607Z,9.55
2022-10-21T18:11:21.848Z,9.05
2022-10-21T18:13:53.518Z,10.05
2022-10-21T18:16:24.140Z,9.38
2022-10-21T18:18:57.392Z,9.57
2022-10-21T18:21:27.764Z,9.23
2022-10-21T18:23:55.944Z,8.93
2022-10-21T18:26:27.768Z,9.23
2022-10-21T18:28:59.630Z,7.97
2022-10-21T18:31:31.100Z,9.75
2022-10-21T18:34:01.318Z,8.27
2022-10-21T18:36:29.323Z,8.45
2022-10-21T18:38:59.079Z,8.77
2022-10-21T18:41:27.462Z,8.48
2022-10-21T18:44:02.162Z,9.37
2022-10-21T18:46:31.100Z,10.00
2022-10-21T18:48:59.434Z,8.90
2022-10-21T18:51:26.946Z,11.30
2022-10-21T18:53:54.772Z,9.23
2022-10-21T18:56:27.354Z,8.73
2022-10-21T18:58:58.833Z,9.23
2022-10-21T19:01:26.943Z,8.35
2022-10-21T19:03:56.151Z,9.05
2022-10-21T19:06:48.710Z,8.65
2022-10-21T19:09:23.315Z,9.13
2022-10-21T19:11:50.884Z,9.98
2022-10-21T19:14:19.667Z,8.73
2022-10-21T19:16:48.838Z,8.97
2022-10-21T19:19:17.456Z,10.07
2022-10-21T19:21:45.078Z,9.10
2022-10-21T19:24:13.202Z,7.35
2022-10-21T19:26:45.073Z,8.57
2022-10-21T19:29:16.689Z,7.78
2022-10-21T19:34:27.072Z,8.60
2022-10-21T19:36:54.734Z,7.18
2022-10-21T19:39:22.523Z,10.02
2022-10-21T19:41:50.145Z,10.07
2022-10-21T19:44:36.589Z,9.40
2022-10-21T19:47:04.139Z,8.05
2022-10-21T19:49:33.108Z,8.27
2022-10-21T19:52:01.097Z,7.95
2022-10-21T19:54:29.101Z,7.28
2022-10-21T19:56:56.871Z,6.90
2022-10-21T19:59:24.700Z,6.57
2022-10-21T20:01:52.233Z,7.68
2022-10-21T20:04:20.069Z,8.48
2022-10-21T20:06:47.871Z,8.00
2022-10-21T20:09:15.908Z,6.82
2022-10-21T20:11:43.754Z,7.57
2022-10-21T20:14:13.488Z,7.25
2022-10-21T20:19:12.804Z,7.25
2022-10-21T20:21:40.821Z,7.25
2022-10-21T20:24:13.064Z,6.20
2022-10-21T20:26:40.782Z,6.50
2022-10-21T20:29:09.065Z,7.82
2022-10-21T20:31:37.295Z,7.18
2022-10-21T20:34:05.675Z,7.20
2022-10-21T20:36:33.843Z,6.85
2022-10-21T20:39:03.196Z,8.15
2022-10-21T20:41:36.028Z,8.02
2022-10-21T20:44:06.890Z,6.97
2022-10-21T20:46:36.516Z,8.20
2022-10-21T20:49:06.594Z,6.82
2022-10-21T20:51:36.841Z,7.05
2022-10-21T20:54:32.586Z,7.35
2022-10-21T20:57:00.171Z,7.28
2022-10-21T20:59:30.363Z,7.20
2022-10-21T21:01:57.974Z,7.10
2022-10-21T21:04:25.789Z,6.20
2022-10-21T21:06:53.519Z,6.78
2022-10-21T21:09:38.102Z,6.32
2022-10-21T21:12:10.821Z,6.15
2022-10-21T21:14:39.226Z,6.43
2022-10-21T21:17:06.789Z,6.40
2022-10-21T21:19:34.569Z,6.65
2022-10-21T21:22:03.790Z,6.60
2022-10-21T21:24:32.394Z,5.97
2022-10-21T21:26:59.980Z,6.13
2022-10-21T21:29:27.802Z,6.82
2022-10-21T21:31:55.266Z,6.38
2022-10-21T21:34:23.083Z,6.75
2022-10-21T21:36:50.692Z,5.95
2022-10-21T21:39:18.500Z,6.03
2022-10-21T21:41:46.460Z,7.28
2022-10-21T21:44:14.571Z,6.10
2022-10-21T21:46:42.202Z,7.22
2022-10-21T21:49:10.313Z,6.32
2022-10-21T21:51:38.069Z,5.85
2022-10-21T21:54:07.919Z,6.38
2022-10-21T21:56:35.892Z,6.57
2022-10-21T21:59:04.594Z,5.72
2022-10-21T22:01:32.484Z,6.17
2022-10-21T22:04:00.784Z,5.80
2022-10-21T22:06:49.430Z,6.38
2022-10-21T22:09:23.386Z,6.07
2022-10-21T22:13:07.218Z,5.65
2022-10-21T22:15:47.440Z,6.50
2022-10-21T22:18:15.496Z,5.93
2022-10-21T22:20:43.311Z,6.50
2022-10-21T22:23:19.855Z,6.03
2022-10-21T22:25:58.803Z,6.57
2022-10-21T22:28:46.271Z,5.50
2022-10-21T22:31:29.180Z,6.50
2022-10-21T22:34:19.139Z,5.82
2022-10-21T22:36:56.951Z,6.30
2022-10-21T22:39:33.667Z,5.40
2022-10-21T22:46:41.770Z,6.10
2022-10-21T22:49:23.381Z,5.65
2022-10-21T22:51:59.422Z,6.57
2022-10-21T22:54:49.384Z,6.28
2022-10-21T22:57:20.813Z,5.93
2022-10-21T23:03:37.094Z,5.97
2022-10-21T23:06:32.385Z,6.55
2022-10-21T23:09:27.561Z,6.10
2022-10-21T23:12:31.418Z,5.78
2022-10-21T23:15:29.157Z,5.72
2022-10-21T23:18:17.819Z,6.30
2022-10-21T23:21:06.544Z,5.78
2022-10-21T23:23:52.504Z,5.35
2022-10-21T23:26:40.519Z,6.57
2022-10-21T23:29:35.424Z,6.30
2022-10-21T23:32:35.853Z,5.57
2022-10-21T23:35:22.464Z,5.95
2022-10-21T23:40:49.706Z,6.50
2022-10-21T23:43:29.069Z,6.22
2022-10-21T23:46:04.306Z,5.43
2022-10-21T23:48:36.842Z,5.50
2022-10-21T23:51:12.610Z,6.82
2022-10-21T23:53:46.249Z,6.10
2022-10-21T23:56:47.310Z,5.30
2022-10-21T23:59:19.884Z,6.38
